createdAt,value
2023-03-26T00:01:23.477Z,100078.28
2023-03-26T00:03:53.805Z,100075.31
2023-03-26T00:06:28.749Z,100084.25
2023-03-26T00:09:01.490Z,100079.19
2023-03-26T00:11:29.391Z,100078.38
2023-03-26T00:13:57.758Z,100075.41
2023-03-26T00:16:27.821Z,100083.31
2023-03-26T00:18:54.270Z,100084.31
2023-03-26T00:21:27.660Z,100084.84
2023-03-26T00:24:07.772Z,100082.56
2023-03-26T00:26:35.836Z,100088.34
2023-03-26T00:29:03.947Z,100090.00
2023-03-26T00:31:31.137Z,100089.38
2023-03-26T00:33:57.777Z,100084.13
2023-03-26T00:36:27.282Z,100082.81
2023-03-26T00:38:54.216Z,100087.41
2023-03-26T00:41:25.138Z,100070.19
2023-03-26T00:43:57.005Z,100076.28
2023-03-26T00:46:25.547Z,100073.31
2023-03-26T00:48:52.336Z,100068.25
2023-03-26T00:51:20.731Z,100063.50
2023-03-26T00:53:49.082Z,100062.84
2023-03-26T00:56:18.839Z,100054.78
2023-03-26T00:58:46.151Z,100053.19
2023-03-26T01:01:16.332Z,100044.19
2023-03-26T01:04:00.936Z,100044.34
2023-03-26T01:06:36.036Z,100039.59
2023-03-26T01:09:15.824Z,100032.22
2023-03-26T01:11:42.902Z,100031.06
2023-03-26T01:14:12.999Z,100024.19
2023-03-26T01:16:44.925Z,100019.97
2023-03-26T01:19:23.746Z,100009.94
2023-03-26T01:21:50.152Z,100010.25
2023-03-26T01:24:16.776Z,100016.97
2023-03-26T01:27:17.882Z,100015.84
2023-03-26T01:29:52.585Z,100006.34
2023-03-26T01:32:44.064Z,100013.38
2023-03-26T01:35:14.060Z,99996.00
2023-03-26T01:37:52.880Z,99996.84
2023-03-26T01:40:42.916Z,99991.41
2023-03-26T01:43:31.112Z,99984.53
2023-03-26T01:46:01.752Z,99984.72
2023-03-26T01:48:31.222Z,99979.63
2023-03-26T01:50:58.792Z,99968.13
2023-03-26T01:53:28.043Z,99968.97
2023-03-26T01:56:22.243Z,99968.44
2023-03-26T01:59:39.073Z,99954.03
2023-03-26T02:02:15.370Z,99948.78
2023-03-26T02:05:21.516Z,99948.66
2023-03-26T02:08:09.590Z,99950.09
2023-03-26T02:10:41.922Z,99952.72
2023-03-26T02:13:11.715Z,99941.25
2023-03-26T02:15:39.932Z,99930.94
2023-03-26T02:18:10.758Z,99920.28
2023-03-26T02:20:37.681Z,99920.56
2023-03-26T02:23:06.880Z,99918.94
2023-03-26T02:25:39.882Z,99904.16
2023-03-26T02:28:06.336Z,99894.63
2023-03-26T02:30:35.077Z,99894.00
2023-03-26T02:33:01.614Z,99892.19
2023-03-26T02:35:28.029Z,99891.72
2023-03-26T02:37:54.640Z,99886.00
2023-03-26T02:40:24.943Z,99878.81
2023-03-26T02:42:51.509Z,99877.66
2023-03-26T02:45:18.040Z,99869.47
2023-03-26T02:47:46.106Z,99869.47
2023-03-26T02:50:16.360Z,99867.19
2023-03-26T02:52:43.333Z,99858.47
2023-03-26T02:55:14.822Z,99858.88
2023-03-26T02:57:41.270Z,99853.81
2023-03-26T03:00:15.124Z,99848.56
2023-03-26T03:02:41.655Z,99840.50
2023-03-26T03:05:08.480Z,99840.19
2023-03-26T03:07:38.550Z,99839.03
2023-03-26T03:10:13.794Z,99841.00
2023-03-26T03:12:41.600Z,99831.66
2023-03-26T03:15:09.516Z,99824.78
2023-03-26T03:17:38.193Z,99827.84
2023-03-26T03:20:09.164Z,99822.13
2023-03-26T03:22:36.293Z,99822.28
2023-03-26T03:25:04.833Z,99823.44
2023-03-26T03:27:31.307Z,99821.84
2023-03-26T03:29:58.897Z,99809.53
2023-03-26T03:32:25.654Z,99808.38
2023-03-26T03:34:56.708Z,99811.00
2023-03-26T03:37:24.547Z,99801.84
2023-03-26T03:39:51.032Z,99802.00
2023-03-26T03:42:17.443Z,99798.41
2023-03-26T03:44:43.953Z,99787.44
2023-03-26T03:47:13.707Z,99784.00
2023-03-26T03:49:40.746Z,99778.75
2023-03-26T03:52:07.234Z,99781.97
2023-03-26T03:54:33.763Z,99776.72
2023-03-26T03:57:03.380Z,99767.25
2023-03-26T03:59:29.796Z,99765.56
2023-03-26T04:01:58.344Z,99763.75
2023-03-26T04:04:24.969Z,99758.03
2023-03-26T04:09:41.829Z,99749.56
2023-03-26T04:12:08.195Z,99744.94
2023-03-26T04:14:34.533Z,99745.94
2023-03-26T04:17:02.143Z,99735.91
2023-03-26T04:19:28.701Z,99731.78
2023-03-26T04:21:55.349Z,99730.50
2023-03-26T04:24:24.750Z,99718.72
2023-03-26T04:26:51.152Z,99715.81
2023-03-26T04:29:24.342Z,99701.59
2023-03-26T04:31:58.603Z,99697.38
2023-03-26T04:34:25.736Z,99694.50
2023-03-26T04:36:56.463Z,99692.97
2023-03-26T04:39:22.990Z,99679.97
2023-03-26T04:41:49.357Z,99677.88
2023-03-26T04:44:17.036Z,99676.78
2023-03-26T04:46:43.829Z,99673.63
2023-03-26T04:49:10.592Z,99667.84
2023-03-26T04:51:39.421Z,99667.38
2023-03-26T04:54:07.238Z,99665.59
2023-03-26T04:56:58.434Z,99664.06
2023-03-26T04:59:35.086Z,99658.19
2023-03-26T05:02:04.099Z,99653.63
2023-03-26T05:04:30.829Z,99648.75
2023-03-26T05:06:59.410Z,99644.34
2023-03-26T05:09:26.990Z,99644.34
2023-03-26T05:11:53.464Z,99641.59
2023-03-26T05:14:20.634Z,99628.97
2023-03-26T05:16:49.035Z,99613.78
2023-03-26T05:19:15.942Z,99619.31
2023-03-26T05:21:42.365Z,99617.63
2023-03-26T05:24:13.827Z,99619.94
2023-03-26T05:26:40.207Z,99621.94
2023-03-26T05:29:06.717Z,99605.94
2023-03-26T05:31:33.251Z,99612.44
2023-03-26T05:34:03.269Z,99612.19
2023-03-26T05:36:29.844Z,99606.28
2023-03-26T05:38:56.314Z,99600.34
2023-03-26T05:41:22.878Z,99589.84
2023-03-26T05:43:49.350Z,99587.97
2023-03-26T05:46:15.992Z,99587.41
2023-03-26T05:48:42.510Z,99577.47
2023-03-26T05:51:12.360Z,99568.50
2023-03-26T05:53:38.728Z,99568.94
2023-03-26T05:56:05.571Z,99558.75
2023-03-26T05:58:36.671Z,99554.59
2023-03-26T06:01:08.874Z,99550.16
2023-03-26T06:03:40.178Z,99543.47
2023-03-26T06:06:09.265Z,99529.25
2023-03-26T06:08:36.140Z,99525.53
2023-03-26T06:11:07.231Z,99528.28
2023-03-26T06:13:33.812Z,99520.50
2023-03-26T06:16:00.577Z,99515.78
2023-03-26T06:18:27.247Z,99519.75
2023-03-26T06:20:54.105Z,99515.84
2023-03-26T06:23:23.194Z,99510.31
2023-03-26T06:25:49.821Z,99502.91
2023-03-26T06:28:19.113Z,99491.22
2023-03-26T06:30:47.826Z,99483.72
2023-03-26T06:33:14.349Z,99484.59
2023-03-26T06:35:40.794Z,99483.34
2023-03-26T06:38:07.689Z,99475.84
2023-03-26T06:40:37.031Z,99475.03
2023-03-26T06:43:09.225Z,99471.69
2023-03-26T06:45:39.485Z,99460.78
2023-03-26T06:48:06.303Z,99458.63
2023-03-26T06:50:32.921Z,99446.69
2023-03-26T06:52:59.590Z,99449.06
2023-03-26T06:55:26.338Z,99445.56
2023-03-26T06:57:54.645Z,99447.03
2023-03-26T07:00:21.444Z,99446.06
2023-03-26T07:02:47.892Z,99444.94
2023-03-26T07:05:15.595Z,99446.94
2023-03-26T07:07:45.865Z,99446.91
2023-03-26T07:10:18.066Z,99446.09
2023-03-26T07:12:44.688Z,99442.88
2023-03-26T07:15:11.504Z,99437.78
2023-03-26T07:17:38.207Z,99427.50
2023-03-26T07:20:08.894Z,99436.91
2023-03-26T07:22:36.138Z,99429.28
2023-03-26T07:25:03.369Z,99422.69
2023-03-26T07:27:46.062Z,99440.41
2023-03-26T07:30:17.927Z,99430.78
2023-03-26T07:33:01.706Z,99431.44
2023-03-26T07:35:42.910Z,99427.16
2023-03-26T07:38:29.558Z,99423.31
2023-03-26T07:41:08.754Z,99420.25
2023-03-26T07:43:44.081Z,99418.44
2023-03-26T07:46:12.181Z,99410.56
2023-03-26T07:48:49.820Z,99408.19
2023-03-26T07:51:18.741Z,99409.09
2023-03-26T07:53:45.682Z,99406.19
2023-03-26T07:56:16.493Z,99407.38
2023-03-26T07:59:02.223Z,99412.19
2023-03-26T08:01:48.169Z,99413.97
2023-03-26T08:04:24.574Z,99416.81
2023-03-26T08:07:03.465Z,99404.94
2023-03-26T08:09:39.921Z,99411.75
2023-03-26T08:12:48.103Z,99409.50
2023-03-26T08:15:29.574Z,99408.00
2023-03-26T08:18:03.111Z,99420.88
2023-03-26T08:20:43.584Z,99426.81
2023-03-26T08:23:23.452Z,99427.44
2023-03-26T08:26:17.328Z,99419.84
2023-03-26T08:29:26.735Z,99429.69
2023-03-26T08:31:54.718Z,99426.44
2023-03-26T08:34:21.275Z,99423.38
2023-03-26T08:36:49.986Z,99426.16
2023-03-26T08:39:16.959Z,99414.53
2023-03-26T08:41:59.375Z,99402.88
2023-03-26T08:44:40.730Z,99398.09
2023-03-26T08:47:22.330Z,99393.06
2023-03-26T08:50:13.490Z,99396.59
2023-03-26T08:53:08.774Z,99386.78
2023-03-26T08:55:53.613Z,99382.59
2023-03-26T08:58:44.932Z,99386.50
2023-03-26T09:01:49.067Z,99395.28
2023-03-26T09:04:48.482Z,99413.00
2023-03-26T09:07:29.857Z,99426.13
2023-03-26T09:10:09.422Z,99422.44
2023-03-26T09:13:14.685Z,99389.03
2023-03-26T09:16:06.431Z,99382.38
2023-03-26T09:19:06.698Z,99376.16
2023-03-26T09:21:47.457Z,99387.22
2023-03-26T09:24:41.720Z,99357.66
2023-03-26T09:27:33.003Z,99359.38
2023-03-26T09:30:24.344Z,99349.66
2023-03-26T09:33:21.515Z,99349.25
2023-03-26T09:35:53.181Z,99341.53
2023-03-26T09:38:25.926Z,99339.34
2023-03-26T09:41:01.422Z,99325.34
2023-03-26T09:43:51.996Z,99325.34
2023-03-26T09:46:27.204Z,99328.56
2023-03-26T09:49:12.008Z,99331.81
2023-03-26T09:51:41.097Z,99326.94
2023-03-26T09:54:28.578Z,99323.19
2023-03-26T09:56:58.551Z,99328.44
2023-03-26T09:59:51.601Z,99314.91
2023-03-26T10:02:45.291Z,99313.88
2023-03-26T10:05:20.167Z,99320.84
2023-03-26T10:08:21.757Z,99318.63
2023-03-26T10:11:03.333Z,99300.41
2023-03-26T10:13:33.842Z,99294.75
2023-03-26T10:16:08.125Z,99278.78
2023-03-26T10:18:57.587Z,99278.06
2023-03-26T10:21:55.337Z,99286.00
2023-03-26T10:24:40.376Z,99281.97
2023-03-26T10:27:42.930Z,99284.88
2023-03-26T10:30:48.199Z,99302.63
2023-03-26T10:33:45.993Z,99295.97
2023-03-26T10:36:35.649Z,99291.41
2023-03-26T10:39:37.636Z,99297.03
2023-03-26T10:42:25.634Z,99284.97
2023-03-26T10:45:00.947Z,99303.06
2023-03-26T10:48:00.070Z,99305.81
2023-03-26T10:50:55.529Z,99301.38
2023-03-26T10:53:55.018Z,99273.91
2023-03-26T10:56:39.758Z,99275.84
2023-03-26T10:59:08.955Z,99273.75
2023-03-26T11:01:39.739Z,99280.50
2023-03-26T11:04:27.026Z,99281.78
2023-03-26T11:07:16.473Z,99283.56
2023-03-26T11:10:19.896Z,99273.88
2023-03-26T11:12:56.085Z,99274.63
2023-03-26T11:15:40.536Z,99280.31
2023-03-26T11:18:43.344Z,99266.75
2023-03-26T11:21:19.405Z,99262.88
2023-03-26T11:24:04.449Z,99268.44
2023-03-26T11:26:56.399Z,99255.75
2023-03-26T11:29:49.544Z,99257.16
2023-03-26T11:32:31.819Z,99252.38
2023-03-26T11:35:05.760Z,99266.00
2023-03-26T11:37:38.631Z,99263.31
2023-03-26T11:40:14.240Z,99271.28
2023-03-26T11:42:42.194Z,99264.59
2023-03-26T11:45:21.614Z,99262.97
2023-03-26T11:47:52.849Z,99247.09
2023-03-26T11:50:27.309Z,99243.13
2023-03-26T11:53:12.471Z,99245.47
2023-03-26T11:55:44.386Z,99240.13
2023-03-26T11:58:54.018Z,99236.88
2023-03-26T12:01:32.464Z,99241.78
2023-03-26T12:04:07.119Z,99244.22
2023-03-26T12:06:34.444Z,99240.44
2023-03-26T12:09:03.073Z,99240.69
2023-03-26T12:11:35.549Z,99237.78
2023-03-26T12:14:04.983Z,99237.47
2023-03-26T12:16:31.628Z,99228.94
2023-03-26T12:18:59.835Z,99244.47
2023-03-26T12:21:26.954Z,99249.38
2023-03-26T12:23:57.864Z,99254.44
2023-03-26T12:26:34.019Z,99252.31
2023-03-26T12:29:08.115Z,99247.22
2023-03-26T12:32:13.133Z,99245.47
2023-03-26T12:34:42.702Z,99233.31
2023-03-26T12:37:37.122Z,99215.41
2023-03-26T12:40:25.723Z,99222.34
2023-03-26T12:44:48.634Z,99221.31
2023-03-26T12:45:43.356Z,99217.06
2023-03-26T12:48:13.237Z,99212.56
2023-03-26T12:50:45.601Z,99209.81
2023-03-26T12:53:19.145Z,99205.72
2023-03-26T12:55:57.146Z,99201.56
2023-03-26T12:59:01.972Z,99200.91
2023-03-26T13:01:38.237Z,99178.47
2023-03-26T13:04:13.494Z,99193.06
2023-03-26T13:07:01.635Z,99190.50
2023-03-26T13:10:08.474Z,99198.69
2023-03-26T13:12:53.140Z,99192.44
2023-03-26T13:15:36.604Z,99183.88
2023-03-26T13:18:30.338Z,99184.88
2023-03-26T13:21:11.275Z,99180.19
2023-03-26T13:23:55.733Z,99175.94
2023-03-26T13:26:46.527Z,99176.75
2023-03-26T13:29:27.903Z,99173.13
2023-03-26T13:32:04.930Z,99172.41
2023-03-26T13:35:02.123Z,99176.41
2023-03-26T13:37:38.579Z,99170.63
2023-03-26T13:40:26.148Z,99169.63
2023-03-26T13:43:17.801Z,99170.66
2023-03-26T13:45:46.896Z,99168.34
2023-03-26T13:48:20.399Z,99157.31
2023-03-26T13:50:58.343Z,99166.03
2023-03-26T13:53:35.572Z,99158.09
2023-03-26T13:56:05.243Z,99163.63
2023-03-26T13:58:42.007Z,99159.25
2023-03-26T14:01:22.587Z,99162.47
2023-03-26T14:04:01.109Z,99153.34
2023-03-26T14:06:41.909Z,99165.22
2023-03-26T14:09:25.084Z,99158.28
2023-03-26T14:11:51.571Z,99163.22
2023-03-26T14:14:26.350Z,99159.19
2023-03-26T14:16:59.891Z,99162.53
2023-03-26T14:19:50.730Z,99164.69
2023-03-26T14:22:33.698Z,99163.75
2023-03-26T14:25:17.053Z,99166.19
2023-03-26T14:28:01.910Z,99168.13
2023-03-26T14:30:37.470Z,99167.91
2023-03-26T14:33:17.799Z,99170.16
2023-03-26T14:36:06.240Z,99179.47
2023-03-26T14:38:47.957Z,99192.69
2023-03-26T14:41:17.153Z,99211.47
2023-03-26T14:44:21.184Z,99205.09
2023-03-26T14:47:06.225Z,99209.81
2023-03-26T14:50:03.889Z,99213.09
2023-03-26T14:53:12.230Z,99225.53
2023-03-26T14:55:50.773Z,99229.47
2023-03-26T14:59:00.757Z,99231.88
2023-03-26T15:01:40.141Z,99233.16
2023-03-26T15:04:06.633Z,99224.81
2023-03-26T15:06:36.021Z,99228.09
2023-03-26T15:09:40.934Z,99230.69
2023-03-26T15:12:25.558Z,99224.03
2023-03-26T15:15:20.514Z,99220.19
2023-03-26T15:18:16.922Z,99220.19
2023-03-26T15:21:12.875Z,99222.19
2023-03-26T15:24:11.450Z,99229.28
2023-03-26T15:27:24.372Z,99230.94
2023-03-26T15:30:10.184Z,99218.22
2023-03-26T15:33:07.990Z,99218.63
2023-03-26T15:35:57.510Z,99213.34
2023-03-26T15:39:01.674Z,99208.69
2023-03-26T15:42:06.265Z,99219.00
2023-03-26T15:44:50.961Z,99222.69
2023-03-26T15:47:40.394Z,99227.31
2023-03-26T15:50:42.002Z,99237.81
2023-03-26T15:53:29.926Z,99242.28
2023-03-26T15:56:08.024Z,99245.50
2023-03-26T15:58:53.614Z,99259.44
2023-03-26T16:01:37.898Z,99269.53
2023-03-26T16:04:36.043Z,99271.31
2023-03-26T16:07:26.245Z,99282.66
2023-03-26T16:10:04.487Z,99281.66
2023-03-26T16:12:52.317Z,99281.81
2023-03-26T16:15:33.263Z,99282.81
2023-03-26T16:18:12.281Z,99286.28
2023-03-26T16:21:01.718Z,99275.16
2023-03-26T16:23:47.214Z,99274.97
2023-03-26T16:26:32.070Z,99284.22
2023-03-26T16:29:16.785Z,99291.28
2023-03-26T16:32:15.857Z,99301.78
2023-03-26T16:34:53.199Z,99297.25
2023-03-26T16:37:37.810Z,99302.38
2023-03-26T16:40:20.210Z,99307.66
2023-03-26T16:43:10.399Z,99299.56
2023-03-26T16:46:01.193Z,99309.25
2023-03-26T16:48:52.602Z,99315.72
2023-03-26T16:51:40.451Z,99323.34
2023-03-26T16:54:17.483Z,99317.31
2023-03-26T16:57:11.997Z,99309.16
2023-03-26T17:00:06.738Z,99310.06
2023-03-26T17:02:49.103Z,99318.09
2023-03-26T17:05:43.310Z,99315.25
2023-03-26T17:08:36.520Z,99321.72
2023-03-26T17:11:25.841Z,99327.69
2023-03-26T17:14:04.376Z,99321.16
2023-03-26T17:17:03.184Z,99321.00
2023-03-26T17:19:37.554Z,99321.47
2023-03-26T17:22:37.659Z,99320.84
2023-03-26T17:25:22.546Z,99323.63
2023-03-26T17:27:59.088Z,99325.84
2023-03-26T17:31:04.272Z,99330.47
2023-03-26T17:33:39.091Z,99308.94
2023-03-26T17:36:11.964Z,99309.91
2023-03-26T17:38:45.246Z,99307.50
2023-03-26T17:41:12.635Z,99307.97
2023-03-26T17:43:52.321Z,99310.41
2023-03-26T17:46:39.339Z,99307.06
2023-03-26T17:49:11.872Z,99315.28
2023-03-26T17:51:56.605Z,99308.41
2023-03-26T17:54:30.625Z,99320.41
2023-03-26T17:57:03.194Z,99317.75
2023-03-26T17:59:31.897Z,99316.28
2023-03-26T18:02:05.757Z,99308.38
2023-03-26T18:04:44.947Z,99311.47
2023-03-26T18:08:00.027Z,99310.28
2023-03-26T18:10:38.967Z,99303.22
2023-03-26T18:13:15.271Z,99297.38
2023-03-26T18:16:12.122Z,99303.81
2023-03-26T18:18:49.348Z,99303.22
2023-03-26T18:21:29.314Z,99313.72
2023-03-26T18:23:59.420Z,99318.97
2023-03-26T18:26:38.018Z,99318.53
2023-03-26T18:29:13.410Z,99321.34
2023-03-26T18:31:43.214Z,99326.22
2023-03-26T18:34:20.331Z,99327.47
2023-03-26T18:37:08.374Z,99324.47
2023-03-26T18:39:35.063Z,99321.97
2023-03-26T18:42:01.544Z,99321.16
2023-03-26T18:44:28.172Z,99327.84
2023-03-26T18:46:55.363Z,99319.56
2023-03-26T18:49:29.691Z,99320.16
2023-03-26T18:51:57.517Z,99317.03
2023-03-26T18:54:29.062Z,99316.81
2023-03-26T18:56:58.986Z,99310.72
2023-03-26T18:59:29.109Z,99302.03
2023-03-26T19:01:57.714Z,99300.00
2023-03-26T19:04:31.959Z,99293.13
2023-03-26T19:06:59.153Z,99294.34
2023-03-26T19:09:32.210Z,99285.84
2023-03-26T19:12:08.936Z,99284.72
2023-03-26T19:14:54.758Z,99287.56
2023-03-26T19:17:22.242Z,99287.75
2023-03-26T19:19:49.628Z,99288.31
2023-03-26T19:22:16.873Z,99290.72
2023-03-26T19:24:43.757Z,99296.56
2023-03-26T19:27:11.037Z,99291.16
2023-03-26T19:29:38.132Z,99284.75
2023-03-26T19:32:20.539Z,99291.91
2023-03-26T19:34:48.238Z,99293.72
2023-03-26T19:37:26.770Z,99290.34
2023-03-26T19:39:55.439Z,99285.91
2023-03-26T19:42:27.165Z,99285.28
2023-03-26T19:45:18.576Z,99288.69
2023-03-26T19:47:50.171Z,99289.63
2023-03-26T19:50:29.421Z,99295.78
2023-03-26T19:53:15.957Z,99295.50
2023-03-26T19:55:52.353Z,99295.38
2023-03-26T19:58:19.762Z,99302.03
2023-03-26T20:00:46.221Z,99298.06
2023-03-26T20:03:13.077Z,99303.06
2023-03-26T20:05:39.928Z,99305.56
2023-03-26T20:08:19.616Z,99311.44
2023-03-26T20:10:48.696Z,99310.63
2023-03-26T20:13:17.289Z,99311.28
2023-03-26T20:16:05.940Z,99308.06
2023-03-26T20:18:34.060Z,99312.84
2023-03-26T20:21:00.794Z,99310.34
2023-03-26T20:23:28.932Z,99313.97
2023-03-26T20:25:55.924Z,99313.41
2023-03-26T20:28:24.987Z,99319.13
2023-03-26T20:30:54.351Z,99321.00
2023-03-26T20:33:26.791Z,99316.88
2023-03-26T20:35:55.572Z,99327.16
2023-03-26T20:38:32.912Z,99334.78
2023-03-26T20:41:06.222Z,99334.13
2023-03-26T20:43:35.005Z,99334.84
2023-03-26T20:46:01.664Z,99334.38
2023-03-26T20:48:28.180Z,99347.03
2023-03-26T20:50:54.666Z,99345.44
2023-03-26T20:53:21.175Z,99342.63
2023-03-26T20:55:49.214Z,99342.63
2023-03-26T20:58:31.129Z,99352.72
2023-03-26T21:01:01.760Z,99348.84
2023-03-26T21:03:31.575Z,99342.19
2023-03-26T21:06:07.897Z,99348.78
2023-03-26T21:08:34.536Z,99352.84
2023-03-26T21:11:02.783Z,99356.91
2023-03-26T21:14:07.511Z,99356.34
2023-03-26T21:16:34.475Z,99352.84
2023-03-26T21:19:01.173Z,99358.09
2023-03-26T21:21:47.499Z,99362.59
2023-03-26T21:24:44.070Z,99364.56
2023-03-26T21:27:23.112Z,99362.16
2023-03-26T21:29:49.751Z,99370.09
2023-03-26T21:32:16.442Z,99373.53
2023-03-26T21:34:55.689Z,99369.13
2023-03-26T21:37:24.837Z,99382.38
2023-03-26T21:39:51.580Z,99383.09
2023-03-26T21:42:18.505Z,99379.31
2023-03-26T21:44:45.328Z,99378.84
2023-03-26T21:47:12.202Z,99383.19
2023-03-26T21:49:38.928Z,99383.56
2023-03-26T21:52:06.043Z,99385.47
2023-03-26T21:54:33.238Z,99384.00
2023-03-26T21:57:47.219Z,99398.13
2023-03-26T22:00:18.164Z,99389.16
2023-03-26T22:02:58.237Z,99404.41
2023-03-26T22:05:58.999Z,99403.25
2023-03-26T22:08:35.802Z,99404.78
2023-03-26T22:11:02.435Z,99408.50
2023-03-26T22:13:28.922Z,99415.44
2023-03-26T22:15:57.768Z,99415.63
2023-03-26T22:18:25.952Z,99414.00
2023-03-26T22:20:53.122Z,99420.06
2023-03-26T22:23:19.880Z,99424.56
2023-03-26T22:25:47.158Z,99437.94
2023-03-26T22:28:13.825Z,99439.34
2023-03-26T22:30:42.606Z,99443.22
2023-03-26T22:33:11.003Z,99451.97
2023-03-26T22:35:38.964Z,99458.03
2023-03-26T22:38:05.395Z,99462.53
2023-03-26T22:40:31.917Z,99479.19
2023-03-26T22:42:58.336Z,99472.91
2023-03-26T22:45:24.851Z,99489.56
2023-03-26T22:47:52.578Z,99492.19
2023-03-26T22:50:30.487Z,99489.66
2023-03-26T22:52:56.898Z,99505.38
2023-03-26T22:55:28.863Z,99507.25
2023-03-26T22:57:56.737Z,99529.22
2023-03-26T23:00:23.200Z,99525.34
2023-03-26T23:02:49.933Z,99525.94
2023-03-26T23:05:17.610Z,99529.19
2023-03-26T23:07:49.051Z,99541.88
2023-03-26T23:10:15.438Z,99546.88
2023-03-26T23:12:44.282Z,99558.81
2023-03-26T23:15:11.235Z,99563.31
2023-03-26T23:17:37.752Z,99568.38
2023-03-26T23:20:12.980Z,99574.59
2023-03-26T23:22:41.680Z,99584.91
2023-03-26T23:25:09.882Z,99586.66
2023-03-26T23:27:36.687Z,99596.56
2023-03-26T23:30:06.776Z,99605.88
2023-03-26T23:32:37.803Z,99617.66
2023-03-26T23:35:07.271Z,99619.47
2023-03-26T23:37:36.574Z,99629.59
2023-03-26T23:40:10.283Z,99644.34
2023-03-26T23:42:37.804Z,99642.44
2023-03-26T23:45:05.527Z,99645.84
2023-03-26T23:47:35.110Z,99661.72
2023-03-26T23:50:04.978Z,99665.16
2023-03-26T23:52:34.484Z,99680.88
2023-03-26T23:55:00.871Z,99683.50
2023-03-26T23:57:27.326Z,99688.13
2023-03-26T23:59:54.585Z,99693.91
